Portada
METAR-TAF:

METAR-TAF

Aeroports :

Shantou, Xina

latitud: 23-24N, longitud: 116-41E, altitud: 3 m

Observació

L'informe es va fer fa 1 hora i 10 minuts, a les 22:00 UTC
Vent 2 kt del Nord-Oest
Temperatura 28°C
Humitat 89%
Pressió 1003 hPa
Visibilitat 10 km o més
Núvols disperses a una alçada de 3000 ft

METAR: ZGOW 082200Z 32001MPS 9999 SCT030 28/26 Q1003 NOSIG

Hora: 07:10 (23:10 UTC)

Pronòstic

L'informe es va fer fa 8 hores i 4 minuts, a les 15:06 UTC
Pronòstic vàlid del 08 a les 18 UTC al 09 a les 18 UTC
Vent 8 kt del Sud/Sud-Oest
Visibilitat: 6000 m
Escasses núvols a una alçada de 2000 ft
Núvols disperses a una alçada de 5000 ft
Temporalment
l' 09 a les 04 UTC al 09 a les 10 UTC
Visibilitat: 3200 m
Escasses núvols a una alçada de 1100 ft
Escasses núvols a una alçada de 3000 ft, Cumulonimbus.
Cel ennuvolat a una alçada de 3300 ft
xàfecs de pluja

TAF: ZGOW 081506Z 0818/0918 21004MPS 6000 FEW020 SCT050 TX35/0906Z TN27/0822Z TEMPO 0904/0910 3200 SHRA FEW011 FEW030CB BKN033

Observacions i pronòstics meteorològics de més de 4000 aeroports (METAR i TAF).

Les estacions disponibles són els punts grocs i vermells al mapa.

Posi el ratolí al punt desitjat per veure el nom de l'estació.

Feu clic per veure les observacions i els pronòstics meteorològics.

Per canviar el mapa: feu clic els botons verds amb una creu de color negre per apropar; al botó verd amb un guió per allunyar la imatge; o en les fletxes verdes per a mapes adjacents.


METAR-TAF: